Time;durP1;ratioP1;P1;durP2;ratioP2;P2;SDS_P1;SDS_P2;PMS_P1;PMS_P2;Temp;Humidity;BMP_temperature;BMP_pressure;BME280_temperature;BME280_humidity;BME280_pressure;Samples;Min_cycle;Max_cycle;Signal;HPM_P1;HPM_P2
2023/05/05 00:01:07;;;;;;;7.37;6.67;;;17.20;99.90;;;;;;5016640;28;20393;-74
2023/05/05 00:03:34;;;;;;;6.13;5.33;;;17.20;99.90;;;;;;5017134;28;20191;-75
2023/05/05 00:05:59;;;;;;;6.17;5.67;;;17.20;99.90;;;;;;5017306;28;20407;-75
2023/05/05 00:08:25;;;;;;;6.57;5.50;;;17.20;99.90;;;;;;5017707;28;20765;-75
2023/05/05 00:10:52;;;;;;;6.47;5.90;;;17.00;99.90;;;;;;5017908;28;20240;-74
2023/05/05 00:13:19;;;;;;;7.30;6.60;;;17.10;99.90;;;;;;5016654;28;20663;-75
2023/05/05 00:15:46;;;;;;;6.33;5.77;;;17.10;99.90;;;;;;5017023;28;20453;-74
2023/05/05 00:18:15;;;;;;;6.73;6.13;;;17.20;99.90;;;;;;5016815;28;20407;-75
2023/05/05 00:20:41;;;;;;;7.00;5.60;;;17.00;99.90;;;;;;5016780;28;20414;-74
2023/05/05 00:23:06;;;;;;;9.00;6.53;;;16.80;99.90;;;;;;5017365;28;20446;-74
2023/05/05 00:25:32;;;;;;;6.83;6.20;;;16.90;99.90;;;;;;5016572;28;20399;-74
2023/05/05 00:27:57;;;;;;;6.47;5.87;;;16.90;99.90;;;;;;5016699;28;20622;-74
2023/05/05 00:30:23;;;;;;;7.70;5.50;;;17.00;99.90;;;;;;5016582;28;20188;-74
2023/05/05 00:32:49;;;;;;;8.50;6.10;;;17.00;99.90;;;;;;5016889;28;20168;-75
2023/05/05 00:35:16;;;;;;;6.00;5.50;;;17.00;99.90;;;;;;5016507;28;20643;-74
2023/05/05 00:37:42;;;;;;;8.70;6.87;;;16.90;99.90;;;;;;5016631;28;20407;-74
2023/05/05 00:40:08;;;;;;;6.03;5.03;;;16.90;99.90;;;;;;5016348;28;20429;-74
2023/05/05 00:42:43;;;;;;;7.40;5.70;;;16.90;99.90;;;;;;5016569;28;20666;-75
2023/05/05 00:45:10;;;;;;;6.30;5.70;;;16.80;99.90;;;;;;5016825;28;20943;-74
2023/05/05 00:47:36;;;;;;;5.70;5.07;;;16.80;99.90;;;;;;5016643;28;20411;-74
2023/05/05 00:50:05;;;;;;;6.70;6.00;;;16.80;99.90;;;;;;5016337;28;20426;-74
2023/05/05 00:52:30;;;;;;;7.53;6.83;;;16.90;99.90;;;;;;5016236;28;20770;-74
2023/05/05 00:54:57;;;;;;;6.60;5.90;;;16.90;99.90;;;;;;4998651;28;20414;-74
2023/05/05 00:57:24;;;;;;;6.80;6.10;;;16.80;99.90;;;;;;4998696;28;20179;-74
2023/05/05 00:59:50;;;;;;;12.43;6.60;;;16.80;99.90;;;;;;5040303;23;20512;-71
2023/05/05 01:02:16;;;;;;;7.00;6.40;;;16.80;99.90;;;;;;5035656;28;20442;-71
2023/05/05 01:04:42;;;;;;;6.90;6.03;;;16.80;99.90;;;;;;5035468;28;20433;-70
2023/05/05 01:07:35;;;;;;;6.83;6.23;;;16.70;99.90;;;;;;5035570;28;20172;-70
2023/05/05 01:10:14;;;;;;;6.50;6.00;;;16.70;99.90;;;;;;5035311;28;20449;-71
2023/05/05 01:12:46;;;;;;;6.43;5.93;;;16.70;99.90;;;;;;5034530;28;20410;-71
2023/05/05 01:15:36;;;;;;;8.90;6.37;;;16.80;99.90;;;;;;5015860;28;20393;-70
2023/05/05 01:18:04;;;;;;;6.17;5.70;;;16.80;99.90;;;;;;5015845;28;20402;-71
2023/05/05 01:20:30;;;;;;;6.03;5.53;;;16.70;99.90;;;;;;5015657;28;20473;-70
2023/05/05 01:23:03;;;;;;;6.57;5.87;;;16.60;99.90;;;;;;5015660;28;20834;-70
2023/05/05 01:25:51;;;;;;;7.10;6.50;;;16.60;99.90;;;;;;5015274;28;20148;-70
2023/05/05 01:28:47;;;;;;;6.50;5.90;;;16.60;99.90;;;;;;5015046;28;20407;-71
2023/05/05 01:31:38;;;;;;;7.17;6.47;;;16.60;99.90;;;;;;5015455;28;20771;-70
2023/05/05 01:34:08;;;;;;;6.87;6.20;;;16.50;99.90;;;;;;5015869;28;20407;-72
2023/05/05 01:36:37;;;;;;;6.43;5.93;;;16.40;99.90;;;;;;5013998;28;20418;-71
2023/05/05 01:39:06;;;;;;;10.43;6.50;;;16.30;99.90;;;;;;5015130;28;20979;-70
2023/05/05 01:41:42;;;;;;;6.73;6.13;;;16.30;99.90;;;;;;5014679;28;20426;-71
2023/05/05 01:44:11;;;;;;;7.03;6.33;;;16.20;99.90;;;;;;5013742;28;20446;-70
2023/05/05 01:46:37;;;;;;;6.80;6.10;;;16.20;99.90;;;;;;5014958;28;20445;-71
2023/05/05 01:49:03;;;;;;;6.60;6.00;;;16.20;99.90;;;;;;5015196;28;20434;-71
2023/05/05 01:51:30;;;;;;;7.00;6.40;;;16.20;99.90;;;;;;5014781;28;20478;-71
2023/05/05 01:53:58;;;;;;;6.33;5.60;;;16.20;99.90;;;;;;5014430;28;20406;-70
2023/05/05 01:56:25;;;;;;;6.10;5.50;;;16.30;99.90;;;;;;5014878;28;20460;-70
2023/05/05 01:58:51;;;;;;;7.50;6.20;;;16.40;99.90;;;;;;5014281;28;20396;-70
2023/05/05 02:01:21;;;;;;;5.80;5.33;;;16.40;99.90;;;;;;5012712;28;20442;-70
2023/05/05 02:03:49;;;;;;;6.20;5.70;;;16.50;99.90;;;;;;5014534;28;20395;-70
2023/05/05 02:06:17;;;;;;;6.40;5.80;;;16.50;99.90;;;;;;5015156;28;20781;-71
2023/05/05 02:08:43;;;;;;;9.13;6.53;;;16.60;99.90;;;;;;5014609;28;20538;-71
2023/05/05 02:11:10;;;;;;;6.53;5.57;;;16.70;99.90;;;;;;5014476;28;20451;-71
2023/05/05 02:13:37;;;;;;;5.30;4.90;;;16.70;99.90;;;;;;5014100;28;20421;-71
2023/05/05 02:16:04;;;;;;;6.53;5.70;;;16.60;99.90;;;;;;5014583;28;20411;-70
2023/05/05 02:18:34;;;;;;;6.03;5.53;;;16.70;99.90;;;;;;5014461;28;20901;-70
2023/05/05 02:21:00;;;;;;;6.03;5.50;;;16.60;99.90;;;;;;5014260;28;20481;-71
2023/05/05 02:23:26;;;;;;;4.67;4.27;;;16.70;99.90;;;;;;5014597;28;20445;-71
2023/05/05 02:25:56;;;;;;;6.03;5.40;;;16.60;99.90;;;;;;5014492;28;20964;-70
2023/05/05 02:28:40;;;;;;;6.13;5.63;;;16.60;99.90;;;;;;5014070;28;20399;-70
2023/05/05 02:31:08;;;;;;;6.80;6.30;;;16.50;99.90;;;;;;5014442;28;20506;-70
2023/05/05 02:33:35;;;;;;;5.80;5.30;;;16.50;99.90;;;;;;5014485;28;20411;-71
2023/05/05 02:36:09;;;;;;;6.70;6.10;;;16.50;99.90;;;;;;5014306;28;20438;-71
2023/05/05 02:38:39;;;;;;;6.20;5.70;;;16.50;99.90;;;;;;5014466;28;20403;-70
2023/05/05 02:41:08;;;;;;;6.67;6.07;;;16.30;99.90;;;;;;5014029;28;20433;-71
2023/05/05 02:43:36;;;;;;;6.73;6.13;;;16.20;99.90;;;;;;5013507;28;20442;-72
2023/05/05 02:46:02;;;;;;;6.40;5.83;;;16.20;99.90;;;;;;5014191;28;20411;-70
2023/05/05 02:48:28;;;;;;;9.43;6.00;;;16.20;99.90;;;;;;5012816;28;20419;-72
2023/05/05 02:50:54;;;;;;;5.90;5.33;;;16.20;99.90;;;;;;5014072;28;20559;-71
2023/05/05 02:53:23;;;;;;;5.87;5.30;;;16.30;99.90;;;;;;5012471;28;20418;-72
2023/05/05 02:56:16;;;;;;;6.50;5.90;;;16.30;99.90;;;;;;5014126;28;20576;-71
2023/05/05 02:59:13;;;;;;;6.03;5.40;;;16.40;99.90;;;;;;5013433;28;20399;-70
2023/05/05 03:02:09;;;;;;;6.07;5.50;;;16.50;99.90;;;;;;4988852;28;20470;-72
2023/05/05 03:04:41;;;;;;;5.47;4.90;;;16.60;99.90;;;;;;5014135;28;20941;-71
2023/05/05 03:07:13;;;;;;;4.73;4.33;;;16.60;99.90;;;;;;5013727;28;20426;-70
2023/05/05 03:09:51;;;;;;;5.00;4.60;;;16.80;99.90;;;;;;5013481;28;20434;-72
2023/05/05 03:12:21;;;;;;;5.53;4.60;;;16.80;99.90;;;;;;5013726;28;20398;-75
2023/05/05 03:14:50;;;;;;;9.43;5.40;;;16.80;99.90;;;;;;5013553;28;20983;-73
2023/05/05 03:17:18;;;;;;;5.23;4.53;;;17.00;99.90;;;;;;5012854;28;20451;-74
2023/05/05 03:19:44;;;;;;;5.70;5.20;;;17.00;99.90;;;;;;5013336;28;20944;-74
2023/05/05 03:22:10;;;;;;;6.57;4.90;;;17.00;99.90;;;;;;5013297;28;20462;-74
2023/05/05 03:24:36;;;;;;;4.97;4.57;;;17.10;99.90;;;;;;5013285;28;20910;-75
2023/05/05 03:27:01;;;;;;;5.43;4.93;;;17.10;99.90;;;;;;5013198;28;20406;-75
2023/05/05 03:29:28;;;;;;;5.03;4.60;;;17.20;99.90;;;;;;5012797;28;20172;-75
2023/05/05 03:31:54;;;;;;;4.87;4.47;;;17.20;99.90;;;;;;5013278;28;20538;-74
2023/05/05 03:34:20;;;;;;;4.70;4.30;;;17.10;99.90;;;;;;5013666;28;20409;-74
2023/05/05 03:36:45;;;;;;;5.07;4.67;;;17.20;99.90;;;;;;5013169;28;20246;-74
2023/05/05 03:39:11;;;;;;;5.13;4.60;;;17.10;99.90;;;;;;5013311;28;20175;-73
2023/05/05 03:41:37;;;;;;;4.40;4.00;;;17.10;99.90;;;;;;5012945;28;20196;-74
2023/05/05 03:44:02;;;;;;;5.00;4.50;;;17.10;99.90;;;;;;5011791;28;20176;-74
2023/05/05 03:46:28;;;;;;;4.60;4.30;;;17.20;99.90;;;;;;5010105;28;20164;-73
2023/05/05 03:48:55;;;;;;;4.80;4.40;;;17.40;99.90;;;;;;5013028;28;20164;-74
2023/05/05 03:51:22;;;;;;;4.57;4.17;;;17.50;99.90;;;;;;5013112;28;20534;-75
2023/05/05 03:53:48;;;;;;;6.37;4.40;;;17.50;99.90;;;;;;5013222;28;20403;-74
2023/05/05 03:56:13;;;;;;;5.20;4.70;;;17.50;99.90;;;;;;5012964;28;20403;-73
2023/05/05 03:58:39;;;;;;;4.70;4.40;;;17.60;99.90;;;;;;5012560;28;20430;-74
2023/05/05 04:01:04;;;;;;;4.97;4.53;;;17.60;99.90;;;;;;5012404;28;20204;-74
2023/05/05 04:03:30;;;;;;;4.83;4.43;;;17.70;99.90;;;;;;5013236;28;20196;-73
2023/05/05 04:05:56;;;;;;;4.80;4.30;;;17.70;99.90;;;;;;5013010;28;20195;-74
2023/05/05 04:08:21;;;;;;;5.17;4.67;;;17.70;99.90;;;;;;5012917;28;20203;-74
2023/05/05 04:10:47;;;;;;;6.17;4.60;;;17.60;99.90;;;;;;5012460;28;20222;-74
2023/05/05 04:13:13;;;;;;;5.00;4.57;;;17.70;99.90;;;;;;5012499;28;20175;-74
2023/05/05 04:15:46;;;;;;;5.30;4.90;;;17.80;99.90;;;;;;5013010;28;20179;-75
2023/05/05 04:18:11;;;;;;;5.33;4.83;;;17.90;99.90;;;;;;5013201;28;20214;-74
2023/05/05 04:20:37;;;;;;;4.93;4.53;;;17.90;99.90;;;;;;5012962;28;20431;-74
2023/05/05 04:23:03;;;;;;;5.87;5.37;;;17.70;99.90;;;;;;5012772;28;20869;-74
2023/05/05 04:25:28;;;;;;;6.53;5.83;;;17.80;99.90;;;;;;5012816;28;20160;-74
2023/05/05 04:27:54;;;;;;;4.90;4.40;;;17.80;99.90;;;;;;5014084;28;20541;-74
2023/05/05 04:30:19;;;;;;;6.90;6.20;;;17.80;99.90;;;;;;5016501;28;20281;-74
2023/05/05 04:32:45;;;;;;;5.30;4.80;;;17.90;99.90;;;;;;5015348;28;20168;-75
2023/05/05 04:35:11;;;;;;;6.33;5.17;;;18.00;99.90;;;;;;5016589;28;20160;-75
2023/05/05 04:37:36;;;;;;;5.70;5.03;;;17.90;99.90;;;;;;5016351;28;20222;-75
2023/05/05 04:40:02;;;;;;;4.47;4.17;;;17.90;99.90;;;;;;5016603;28;20621;-76
2023/05/05 04:42:29;;;;;;;5.17;4.67;;;17.80;99.90;;;;;;5016345;28;20218;-73
2023/05/05 04:44:54;;;;;;;5.50;5.10;;;17.90;99.90;;;;;;5016150;28;20204;-75
2023/05/05 04:47:20;;;;;;;5.97;5.00;;;18.00;99.90;;;;;;5016596;28;20405;-74
2023/05/05 04:49:46;;;;;;;5.93;4.80;;;18.20;99.90;;;;;;5016467;28;20275;-75
2023/05/05 04:52:12;;;;;;;5.50;5.00;;;18.30;99.90;;;;;;5016412;28;20172;-72
2023/05/05 04:54:38;;;;;;;4.93;4.50;;;18.30;99.90;;;;;;5016589;28;20627;-74
2023/05/05 04:57:03;;;;;;;6.37;4.97;;;18.30;99.90;;;;;;5016559;28;20445;-74
2023/05/05 04:59:29;;;;;;;5.00;4.30;;;18.40;99.90;;;;;;5015995;28;20171;-74
2023/05/05 05:01:55;;;;;;;4.67;4.27;;;18.50;99.90;;;;;;5016731;28;20275;-75
2023/05/05 05:04:21;;;;;;;4.73;4.30;;;18.50;99.90;;;;;;5016890;28;20160;-76
2023/05/05 05:06:46;;;;;;;4.27;3.83;;;18.60;99.90;;;;;;5015475;28;20768;-74
2023/05/05 05:09:12;;;;;;;5.70;4.30;;;18.70;99.90;;;;;;5017741;28;20218;-74
2023/05/05 05:11:38;;;;;;;4.73;4.33;;;18.70;99.90;;;;;;5017062;28;20194;-73
2023/05/05 05:14:03;;;;;;;4.83;4.23;;;18.70;99.90;;;;;;5016664;28;20708;-74
2023/05/05 05:16:29;;;;;;;4.67;4.27;;;18.70;99.90;;;;;;5017154;28;20195;-74
2023/05/05 05:18:54;;;;;;;4.33;4.00;;;18.80;99.90;;;;;;5027944;28;20168;-73
2023/05/05 05:21:20;;;;;;;4.47;4.07;;;18.90;99.90;;;;;;5028586;28;20192;-73
2023/05/05 05:23:46;;;;;;;5.47;4.30;;;18.90;99.90;;;;;;5030449;28;20196;-73
2023/05/05 05:26:11;;;;;;;5.93;4.10;;;19.00;99.90;;;;;;5030743;28;20252;-72
2023/05/05 05:28:37;;;;;;;4.30;4.00;;;19.10;99.90;;;;;;5030306;28;20187;-73
2023/05/05 05:31:03;;;;;;;3.77;3.47;;;19.20;99.90;;;;;;5030618;28;20203;-73
2023/05/05 05:33:29;;;;;;;4.60;4.20;;;19.30;99.90;;;;;;5028404;28;20199;-73
2023/05/05 05:35:55;;;;;;;4.30;3.50;;;19.30;99.90;;;;;;5029056;28;20419;-73
2023/05/05 05:38:20;;;;;;;4.30;3.40;;;19.40;99.90;;;;;;5025824;28;20191;-73
2023/05/05 05:40:46;;;;;;;3.77;3.47;;;19.60;99.90;;;;;;5027889;28;20200;-73
2023/05/05 05:43:11;;;;;;;5.40;3.90;;;19.50;99.90;;;;;;5027432;28;20208;-73
2023/05/05 05:45:37;;;;;;;4.20;3.70;;;19.50;99.90;;;;;;5015432;28;20172;-73
2023/05/05 05:48:02;;;;;;;6.10;3.80;;;19.60;99.90;;;;;;5015015;28;20160;-74
2023/05/05 05:50:28;;;;;;;4.37;3.97;;;19.80;99.90;;;;;;5014698;28;20186;-74
2023/05/05 05:52:54;;;;;;;3.53;3.30;;;19.80;99.90;;;;;;5013532;28;20556;-73
2023/05/05 05:55:20;;;;;;;4.30;3.20;;;20.10;99.90;;;;;;5014813;28;20295;-73
2023/05/05 05:57:46;;;;;;;5.47;3.53;;;20.20;99.90;;;;;;5014254;28;20430;-74
2023/05/05 06:00:12;;;;;;;3.43;3.13;;;20.20;99.90;;;;;;5014433;28;20586;-74
2023/05/05 06:02:38;;;;;;;3.33;2.90;;;20.10;99.90;;;;;;5014565;28;20307;-73
2023/05/05 06:05:04;;;;;;;3.73;3.30;;;20.00;99.90;;;;;;5014978;28;20418;-74
2023/05/05 06:07:38;;;;;;;3.67;3.33;;;20.10;99.90;;;;;;5015528;28;20176;-74
2023/05/05 06:10:05;;;;;;;3.13;2.83;;;20.20;99.90;;;;;;5012547;28;20594;-74
2023/05/05 06:12:30;;;;;;;6.30;3.07;;;20.40;99.90;;;;;;5014456;28;20426;-74
2023/05/05 06:14:56;;;;;;;3.73;3.43;;;20.40;99.90;;;;;;5014052;28;20415;-72
2023/05/05 06:17:21;;;;;;;4.00;3.33;;;20.60;99.90;;;;;;5014865;28;20196;-74
2023/05/05 06:19:47;;;;;;;3.63;3.00;;;20.80;99.90;;;;;;5014416;28;20199;-73
2023/05/05 06:22:12;;;;;;;4.67;3.50;;;20.90;99.90;;;;;;5014397;28;20202;-73
2023/05/05 06:24:38;;;;;;;3.50;3.20;;;21.00;99.90;;;;;;5012862;28;20164;-74
2023/05/05 06:27:04;;;;;;;2.80;2.60;;;21.00;99.90;;;;;;5014225;28;20175;-74
2023/05/05 06:29:30;;;;;;;3.97;3.40;;;21.00;99.90;;;;;;5013152;28;20646;-74
2023/05/05 06:31:55;;;;;;;4.13;3.23;;;21.10;99.90;;;;;;5012624;28;20425;-75
2023/05/05 06:34:21;;;;;;;2.90;2.70;;;21.00;99.90;;;;;;5014052;28;20168;-75
2023/05/05 06:36:46;;;;;;;3.00;2.50;;;20.70;99.90;;;;;;5014527;28;20218;-74
2023/05/05 06:39:12;;;;;;;2.97;2.77;;;21.00;99.90;;;;;;5013830;28;20230;-73
2023/05/05 06:41:37;;;;;;;2.70;2.50;;;21.30;99.90;;;;;;5013846;28;20326;-74
2023/05/05 06:44:03;;;;;;;5.73;3.23;;;21.70;99.90;;;;;;5013301;28;20180;-74
2023/05/05 06:46:28;;;;;;;3.33;3.07;;;21.70;99.90;;;;;;5014286;28;20179;-72
2023/05/05 06:48:54;;;;;;;3.90;2.80;;;21.70;99.90;;;;;;5014196;28;20172;-73
2023/05/05 06:51:21;;;;;;;4.00;2.97;;;21.40;99.90;;;;;;5014467;28;20278;-74
2023/05/05 06:53:47;;;;;;;4.87;3.00;;;21.60;99.90;;;;;;5013963;28;20314;-73
2023/05/05 06:56:12;;;;;;;3.10;2.73;;;21.50;99.90;;;;;;5013757;28;20423;-73
2023/05/05 06:58:38;;;;;;;3.10;2.80;;;21.60;99.90;;;;;;5013389;28;20172;-73
2023/05/05 07:01:03;;;;;;;2.50;2.30;;;21.30;99.90;;;;;;5014550;28;20346;-68
2023/05/05 07:03:29;;;;;;;3.13;2.83;;;21.40;99.90;;;;;;5013957;28;20223;-69
2023/05/05 07:05:56;;;;;;;5.87;3.00;;;21.20;99.90;;;;;;5012298;28;20173;-70
2023/05/05 07:08:22;;;;;;;5.20;2.70;;;21.30;99.90;;;;;;5013779;28;20434;-70
2023/05/05 07:10:47;;;;;;;4.33;3.30;;;21.60;99.90;;;;;;5013579;28;20426;-71
2023/05/05 07:13:15;;;;;;;3.03;2.73;;;21.40;99.90;;;;;;5012989;28;20694;-70
2023/05/05 07:15:45;;;;;;;2.77;2.57;;;21.40;99.90;;;;;;5013876;28;20164;-70
2023/05/05 07:18:15;;;;;;;2.77;2.30;;;21.10;99.90;;;;;;5013323;28;20415;-71
2023/05/05 07:20:40;;;;;;;2.97;2.77;;;21.30;99.90;;;;;;5013578;28;20965;-71
2023/05/05 07:23:06;;;;;;;4.63;2.83;;;21.10;99.90;;;;;;5013420;28;20493;-71
2023/05/05 07:25:32;;;;;;;4.13;2.40;;;21.20;99.90;;;;;;5011941;28;20411;-71
2023/05/05 07:27:58;;;;;;;2.83;2.47;;;21.40;99.90;;;;;;4993253;28;20187;-70
2023/05/05 07:30:24;;;;;;;2.47;2.27;;;21.40;99.90;;;;;;4992583;28;20542;-71
2023/05/05 07:32:50;;;;;;;4.20;2.13;;;21.20;99.90;;;;;;4996505;28;20191;-71
2023/05/05 07:35:16;;;;;;;3.67;2.63;;;21.40;99.90;;;;;;5012135;28;20410;-71
2023/05/05 07:37:42;;;;;;;4.10;3.30;;;21.20;99.90;;;;;;5012334;28;20250;-72
2023/05/05 07:40:08;;;;;;;3.73;2.47;;;21.40;99.90;;;;;;5012174;28;20207;-72
2023/05/05 07:42:34;;;;;;;3.47;3.00;;;21.40;99.90;;;;;;5011328;28;20462;-70
2023/05/05 07:45:00;;;;;;;3.33;3.03;;;21.30;99.90;;;;;;5012134;28;20670;-71
2023/05/05 07:47:25;;;;;;;2.50;2.17;;;21.60;99.90;;;;;;5012146;28;20175;-71
2023/05/05 07:49:51;;;;;;;2.93;2.73;;;21.60;99.90;;;;;;5011334;28;20215;-71
2023/05/05 07:52:16;;;;;;;4.80;2.40;;;21.40;99.90;;;;;;5011763;28;20187;-71
2023/05/05 07:54:44;;;;;;;3.47;2.07;;;21.50;99.90;;;;;;5012058;28;20233;-71
2023/05/05 07:57:09;;;;;;;3.47;2.90;;;21.40;99.90;;;;;;5012082;28;20650;-71
2023/05/05 07:59:35;;;;;;;3.33;2.80;;;21.60;99.90;;;;;;5011699;28;20517;-71
2023/05/05 08:02:00;;;;;;;4.90;3.10;;;21.40;99.90;;;;;;5010888;28;20554;-71
2023/05/05 08:04:26;;;;;;;3.10;2.80;;;21.30;99.90;;;;;;5013640;28;20180;-71
2023/05/05 08:06:51;;;;;;;3.03;2.70;;;21.20;99.90;;;;;;5015711;28;20183;-70
2023/05/05 08:09:17;;;;;;;2.97;2.63;;;20.80;99.90;;;;;;5016144;28;20168;-71
2023/05/05 08:11:42;;;;;;;4.10;2.90;;;20.70;99.90;;;;;;5016827;28;20264;-72
2023/05/05 08:14:08;;;;;;;3.00;2.73;;;20.80;99.90;;;;;;5016176;28;20234;-71
2023/05/05 08:16:34;;;;;;;5.30;2.73;;;20.80;99.90;;;;;;5016164;28;20171;-72
2023/05/05 08:18:59;;;;;;;3.10;2.80;;;21.00;99.90;;;;;;5016535;28;20176;-70
2023/05/05 08:21:26;;;;;;;3.43;3.13;;;21.10;99.90;;;;;;5015787;28;20285;-70
2023/05/05 08:23:52;;;;;;;3.90;3.27;;;21.20;99.90;;;;;;5015901;28;20728;-71
2023/05/05 08:26:17;;;;;;;6.90;3.70;;;21.30;99.90;;;;;;5016243;28;20411;-71
2023/05/05 08:28:43;;;;;;;5.90;4.00;;;21.40;99.90;;;;;;5015692;28;20176;-71
2023/05/05 08:31:08;;;;;;;4.57;3.40;;;21.20;99.90;;;;;;5015308;28;20188;-71
2023/05/05 08:33:34;;;;;;;3.37;3.07;;;21.10;99.90;;;;;;5016221;28;20253;-71
2023/05/05 08:36:00;;;;;;;4.17;2.83;;;21.10;99.90;;;;;;5016325;28;20172;-71
2023/05/05 08:38:25;;;;;;;4.07;2.90;;;21.10;99.90;;;;;;5014812;28;20238;-72
2023/05/05 08:40:51;;;;;;;4.80;3.43;;;21.30;99.90;;;;;;5016200;28;20242;-72
2023/05/05 08:43:22;;;;;;;3.30;3.03;;;21.00;99.90;;;;;;5015073;28;20670;-71
2023/05/05 08:45:50;;;;;;;3.40;3.13;;;20.90;99.90;;;;;;5017428;28;20392;-71
2023/05/05 08:48:19;;;;;;;3.30;3.00;;;21.00;99.90;;;;;;5017316;28;20411;-71
2023/05/05 08:50:50;;;;;;;4.80;2.57;;;21.20;99.90;;;;;;5016956;28;20518;-71
2023/05/05 08:53:18;;;;;;;3.50;3.20;;;21.30;99.90;;;;;;5018274;28;20764;-71
2023/05/05 08:55:51;;;;;;;3.73;3.43;;;21.30;99.90;;;;;;5018236;28;20984;-70
2023/05/05 08:58:22;;;;;;;5.30;3.23;;;21.40;99.90;;;;;;5017520;28;20442;-71
2023/05/05 09:00:48;;;;;;;3.63;3.33;;;21.50;99.90;;;;;;5017002;28;20462;-72
2023/05/05 09:03:15;;;;;;;7.90;3.10;;;21.30;99.90;;;;;;5016703;28;20457;-71
2023/05/05 09:05:42;;;;;;;5.67;3.13;;;21.20;99.90;;;;;;5017871;28;20407;-71
2023/05/05 09:08:09;;;;;;;4.20;3.40;;;21.10;99.90;;;;;;5003909;28;20427;-70
2023/05/05 09:10:38;;;;;;;6.27;3.47;;;21.00;99.90;;;;;;4998007;28;20432;-71
2023/05/05 09:13:05;;;;;;;4.00;3.60;;;21.10;99.90;;;;;;5003456;28;20455;-72
2023/05/05 09:15:31;;;;;;;5.90;3.73;;;21.10;99.90;;;;;;5014917;28;20481;-72
2023/05/05 09:17:58;;;;;;;4.37;3.00;;;21.10;99.90;;;;;;5016874;28;20912;-71
2023/05/05 09:20:38;;;;;;;3.90;3.17;;;21.10;99.90;;;;;;5016338;28;20861;-72
2023/05/05 09:23:12;;;;;;;6.13;3.50;;;21.30;99.90;;;;;;5016671;28;20949;-71
2023/05/05 09:25:38;;;;;;;3.43;3.10;;;21.60;99.90;;;;;;5017247;28;20407;-71
2023/05/05 09:28:12;;;;;;;3.90;3.30;;;21.60;99.90;;;;;;5014724;28;20498;-71
2023/05/05 09:30:40;;;;;;;4.40;3.33;;;21.60;99.90;;;;;;5015288;28;20426;-71
2023/05/05 09:33:06;;;;;;;3.67;2.90;;;21.80;99.90;;;;;;5014055;28;20421;-72
2023/05/05 09:36:07;;;;;;;3.10;2.90;;;22.00;99.90;;;;;;5015269;28;20419;-72
2023/05/05 09:38:34;;;;;;;5.60;3.40;;;22.00;99.90;;;;;;4958143;29;20182;-72
2023/05/05 09:41:00;;;;;;;4.07;3.10;;;22.20;99.90;;;;;;5009602;28;20776;-72
2023/05/05 09:43:26;;;;;;;4.23;3.00;;;22.20;99.90;;;;;;5019292;28;20459;-72
2023/05/05 09:46:05;;;;;;;3.33;2.60;;;22.20;99.90;;;;;;5014985;28;20760;-71
2023/05/05 09:48:31;;;;;;;4.30;2.83;;;22.50;99.90;;;;;;5015548;28;20160;-71
2023/05/05 09:50:58;;;;;;;3.90;2.90;;;22.80;99.90;;;;;;5014930;28;20430;-71
2023/05/05 09:53:25;;;;;;;3.33;2.40;;;23.30;99.90;;;;;;5015011;28;20221;-71
2023/05/05 09:55:55;;;;;;;4.40;2.40;;;23.70;99.90;;;;;;5014915;28;20407;-72
2023/05/05 09:58:22;;;;;;;2.90;2.60;;;23.80;99.90;;;;;;5014030;28;20486;-71
2023/05/05 10:00:48;;;;;;;3.50;2.27;;;23.70;99.90;;;;;;5014729;28;20473;-71
2023/05/05 10:03:15;;;;;;;5.83;2.40;;;23.60;99.90;;;;;;5014692;28;20509;-71
2023/05/05 10:05:59;;;;;;;3.13;2.30;;;23.70;99.90;;;;;;5014864;28;20461;-71
2023/05/05 10:08:30;;;;;;;3.70;1.63;;;23.30;99.90;;;;;;5014949;28;20403;-71
2023/05/05 10:10:59;;;;;;;4.00;1.70;;;23.90;99.90;;;;;;5014892;28;20438;-71
2023/05/05 10:13:25;;;;;;;3.40;2.60;;;24.00;99.90;;;;;;5014025;28;20423;-70
2023/05/05 10:15:53;;;;;;;3.57;2.13;;;24.20;99.90;;;;;;5031956;28;20430;-71
2023/05/05 10:18:21;;;;;;;3.20;2.50;;;24.10;99.90;;;;;;5034512;28;20406;-70
2023/05/05 10:20:52;;;;;;;6.93;2.50;;;23.70;99.90;;;;;;5034375;28;20453;-71
2023/05/05 10:23:21;;;;;;;4.27;3.47;;;23.30;99.90;;;;;;5034465;28;20813;-70
2023/05/05 10:25:53;;;;;;;2.70;2.20;;;23.00;99.90;;;;;;5032346;28;20414;-71
2023/05/05 10:28:28;;;;;;;5.30;2.17;;;23.00;99.90;;;;;;5019283;28;20469;-71
2023/05/05 10:30:57;;;;;;;3.17;2.13;;;23.30;99.90;;;;;;5014191;28;20418;-72
2023/05/05 10:33:34;;;;;;;2.23;1.97;;;23.10;99.90;;;;;;5012867;28;20430;-72
2023/05/05 10:36:05;;;;;;;2.87;1.87;;;22.90;99.90;;;;;;5014573;28;20526;-71
2023/05/05 10:38:32;;;;;;;2.40;1.90;;;22.90;99.90;;;;;;5014201;28;20506;-72
2023/05/05 10:40:59;;;;;;;2.90;2.37;;;23.10;99.90;;;;;;5014078;28;20446;-71
2023/05/05 10:43:30;;;;;;;3.10;1.93;;;23.00;99.90;;;;;;5013853;28;20593;-70
2023/05/05 10:45:56;;;;;;;3.20;2.10;;;22.80;99.90;;;;;;5014414;28;20392;-71
2023/05/05 10:48:40;;;;;;;1.93;1.70;;;22.80;99.90;;;;;;5014097;28;20414;-71
2023/05/05 10:51:42;;;;;;;2.10;1.90;;;22.90;99.90;;;;;;5015581;28;20797;-71
2023/05/05 10:54:20;;;;;;;2.83;2.17;;;23.10;99.90;;;;;;5013840;28;20386;-71
2023/05/05 10:56:46;;;;;;;2.90;2.30;;;23.10;99.90;;;;;;5014465;28;20414;-71
2023/05/05 10:59:35;;;;;;;2.40;2.20;;;23.10;99.90;;;;;;5014179;28;20423;-71
2023/05/05 11:02:16;;;;;;;4.27;2.87;;;23.00;99.90;;;;;;5004645;28;20961;-71
2023/05/05 11:04:41;;;;;;;2.50;2.30;;;23.00;99.90;;;;;;5013551;28;20394;-71
2023/05/05 11:07:08;;;;;;;2.80;2.43;;;23.10;99.90;;;;;;5013870;28;20517;-71
2023/05/05 11:09:41;;;;;;;2.90;1.90;;;23.30;99.90;;;;;;5013649;28;20490;-71
2023/05/05 11:12:07;;;;;;;2.87;2.03;;;23.50;99.90;;;;;;5012372;28;20178;-72
2023/05/05 11:14:33;;;;;;;2.77;1.83;;;23.70;99.90;;;;;;5011766;28;20427;-71
2023/05/05 11:16:59;;;;;;;2.40;1.83;;;23.80;99.90;;;;;;5013534;28;20407;-72
2023/05/05 11:19:44;;;;;;;4.20;2.07;;;24.00;99.90;;;;;;5013766;28;20750;-72
2023/05/05 11:22:10;;;;;;;4.20;2.20;;;24.10;99.90;;;;;;5013377;28;20202;-72
2023/05/05 11:24:38;;;;;;;3.10;2.27;;;24.30;99.90;;;;;;5013752;28;20407;-72
2023/05/05 11:27:04;;;;;;;3.90;2.57;;;24.30;99.90;;;;;;5012449;28;20411;-72
2023/05/05 11:30:20;;;;;;;2.73;2.10;;;24.40;99.90;;;;;;5012876;28;20482;-72
2023/05/05 11:33:30;;;;;;;2.67;1.77;;;24.80;99.90;;;;;;4980215;28;20176;-72
2023/05/05 11:35:56;;;;;;;2.30;1.83;;;24.90;99.40;;;;;;5013625;28;20892;-72
2023/05/05 11:38:27;;;;;;;4.20;1.50;;;24.90;99.90;;;;;;5012547;28;20410;-71
2023/05/05 11:41:03;;;;;;;3.10;1.80;;;25.30;99.90;;;;;;5011870;28;20521;-71
2023/05/05 11:43:28;;;;;;;2.10;1.33;;;26.10;97.70;;;;;;5011870;28;20945;-71
2023/05/05 11:46:12;;;;;;;1.67;1.50;;;26.40;97.30;;;;;;5013608;28;20469;-71
2023/05/05 11:48:48;;;;;;;2.20;1.97;;;27.10;97.60;;;;;;5012553;28;20183;-71
2023/05/05 11:51:17;;;;;;;3.40;1.90;;;26.90;95.60;;;;;;5011741;28;20742;-72
2023/05/05 11:53:47;;;;;;;2.10;1.90;;;26.50;95.80;;;;;;5013310;28;20747;-72
2023/05/05 11:56:23;;;;;;;2.00;1.80;;;26.90;96.20;;;;;;5013700;28;20403;-71
2023/05/05 11:59:10;;;;;;;3.60;1.90;;;26.60;96.20;;;;;;5012994;28;20470;-71
2023/05/05 12:01:39;;;;;;;3.87;2.10;;;27.30;96.60;;;;;;5012933;28;20454;-71
2023/05/05 12:04:05;;;;;;;4.80;2.13;;;27.50;95.50;;;;;;5013493;28;20427;-71
2023/05/05 12:06:32;;;;;;;2.10;1.90;;;27.90;93.90;;;;;;5012885;28;20440;-71
2023/05/05 12:08:58;;;;;;;2.60;1.77;;;28.20;94.40;;;;;;5012962;28;20172;-70
2023/05/05 12:11:24;;;;;;;2.97;2.17;;;28.00;93.30;;;;;;5012894;28;20426;-71
2023/05/05 12:13:49;;;;;;;1.93;1.70;;;27.90;93.60;;;;;;5012537;28;20921;-71
2023/05/05 12:16:16;;;;;;;2.77;1.73;;;27.10;92.90;;;;;;5012996;28;20654;-71
2023/05/05 12:18:41;;;;;;;3.70;2.00;;;27.50;94.00;;;;;;5012531;28;20226;-70
2023/05/05 12:21:17;;;;;;;3.27;1.83;;;27.10;92.90;;;;;;5011562;28;20439;-71
2023/05/05 12:23:42;;;;;;;3.83;2.23;;;26.70;92.80;;;;;;5012726;28;20223;-71
2023/05/05 12:26:27;;;;;;;5.43;2.10;;;26.20;93.80;;;;;;5012805;28;20446;-70
2023/05/05 12:28:54;;;;;;;3.83;2.57;;;25.80;94.20;;;;;;5012729;28;20586;-71
2023/05/05 12:31:19;;;;;;;6.17;2.00;;;25.30;95.10;;;;;;5012624;28;20473;-71
2023/05/05 12:33:45;;;;;;;3.73;1.90;;;24.80;95.70;;;;;;5012683;28;20403;-71
2023/05/05 12:36:12;;;;;;;4.90;3.03;;;25.20;95.80;;;;;;5012696;28;20183;-71
2023/05/05 12:38:38;;;;;;;3.07;1.90;;;25.10;95.50;;;;;;5009214;28;20407;-71
2023/05/05 12:41:03;;;;;;;4.90;2.10;;;25.10;95.40;;;;;;4993007;28;20803;-71
2023/05/05 12:43:30;;;;;;;2.77;2.47;;;25.20;95.80;;;;;;5001479;28;20200;-71
2023/05/05 12:46:04;;;;;;;2.70;1.80;;;25.10;96.00;;;;;;5012646;28;20168;-70
2023/05/05 12:48:30;;;;;;;2.73;2.00;;;25.30;95.90;;;;;;5012991;28;20407;-71
2023/05/05 12:51:10;;;;;;;2.47;1.90;;;24.80;96.10;;;;;;5013746;28;20415;-71
2023/05/05 12:53:35;;;;;;;2.30;2.10;;;24.80;95.80;;;;;;5015202;28;20403;-71
2023/05/05 12:56:01;;;;;;;4.30;2.53;;;25.60;95.50;;;;;;5015030;28;20493;-71